Ranchos de Taos, New Mexico
Current Conditions -  °F | °C
As of 3:15 PM on Thursday 23 Oct 2014 (Local Time) from KSKX Reporting Station
Clear Clear  
Wind Chill: 68°   Ceiling: Unl
Heat Index: 68°   Visibility: 10mi
Dew Point: 28°   Wind: 7mph
Humidity: 23%   Direction: 330°NNW
Pressure: 30.28"   Gusts: NA
Location:  36.36°N, 105.61°W
Report Text: KSKX 232115Z AUTO 33006KT 10SM CLR 20/M02 A3028 RMK AO1
Loading
Personal Weather Stations






























Interactive Weather Map
Tropical Storm Tracking
New forecast layout! Learn more

10-Day Weather Forecast

Advertisements
Track Severe Weather on mobile